Aeroporto :
LOGIN :

Iscrizione | Disclaimer

   EN    FR    IT 

 










Sommario :    VFR   VFR Marginale   IFR   IFR Intensivo   IFR Molto Intensivo
Visibilità : 
Base nubi : 
>= 8 km
>= 3000ft
5 / 8 km
1000 / 3000 ft
1500m / 5 km
500 / 1000 ft
800 / 1500m
200 / 500 ft
< 800m
< 200 ft
Simboli :   Temporali  Nebbia  Neve Forte  Precipitazioni Forti  Vento > 20 kt
SIGMETs :   Varie  Temporali  Ghiacco  Turbolenza  Onda orograficha  Ceneri Vulcaniche






- Altitudine del aeroporto : 296 ft
- Codice IATA : GKE


ETNG - Geilenkirchen

ULTIMO METAR :
  • 190250Z 24013KT 9999 FEW015 BKN040 06/04 Q1013

METARs OBSOLETI :
  • 190150Z 25015KT 9999 -RA FEW015 BKN040 06/04 Q1013
  • 190050Z 22014G29KT 9999 -RA FEW013 BKN025 07/05 Q1013

TAF TAF ETNG
Valido dal 19 a 03 ore il 19 a 18 ore UTC


190200Z 1903/1918 24015G27KT 6000 -RA BKN015
BECMG 1803/1805 27015G25KT 9999 NSW SCT018 SCT025
TEMPO 1903/1906 24016G33KT 4000 SHRA RA BKN014CB
BECMG 1915/1918 23008KT



MetMap, La meteo Aeronautica in un colpo d'occhio ! - Copyright ORBIFLY Dicembre 2007 - Disclaimer

ORBIFLY MET'MAP TEAM :

Programmazione e sviluppo : Alexandra Zaïnal
Concezione : Baudouin d'Aumeries
Aiuto per la programmazione : Marc-Olivier Méhu
Supporto tecnico e logistico : Manuel Goepfert
Aiuto per la traduzione : Arnaldo La Scala

Contatto : metmap@orbifly.com




FONTI E CREDITI :

   NOAA